sensor_id;sensor_type;location;lat;lon;timestamp;P1;durP1;ratioP1;P2;durP2;ratioP2
53927;SDS011;39837;47.630;18.822;2022-12-07T00:00:51;14.60;;;9.25;;
53927;SDS011;39837;47.630;18.822;2022-12-07T00:03:35;11.57;;;8.48;;
53927;SDS011;39837;47.630;18.822;2022-12-07T00:06:19;10.02;;;8.05;;
53927;SDS011;39837;47.630;18.822;2022-12-07T00:09:04;11.43;;;7.60;;
53927;SDS011;39837;47.630;18.822;2022-12-07T00:11:50;9.07;;;7.75;;
53927;SDS011;39837;47.630;18.822;2022-12-07T00:14:34;11.02;;;7.70;;
53927;SDS011;39837;47.630;18.822;2022-12-07T00:17:18;10.60;;;6.80;;
53927;SDS011;39837;47.630;18.822;2022-12-07T00:20:02;12.25;;;7.22;;
53927;SDS011;39837;47.630;18.822;2022-12-07T00:22:47;14.50;;;7.88;;
53927;SDS011;39837;47.630;18.822;2022-12-07T00:25:31;13.68;;;8.48;;
53927;SDS011;39837;47.630;18.822;2022-12-07T00:28:15;12.70;;;6.80;;
53927;SDS011;39837;47.630;18.822;2022-12-07T00:31:10;15.00;;;7.82;;
53927;SDS011;39837;47.630;18.822;2022-12-07T00:33:57;13.20;;;8.23;;
53927;SDS011;39837;47.630;18.822;2022-12-07T00:36:44;15.55;;;7.70;;
53927;SDS011;39837;47.630;18.822;2022-12-07T00:39:28;8.10;;;6.97;;
53927;SDS011;39837;47.630;18.822;2022-12-07T00:42:13;20.02;;;7.38;;
53927;SDS011;39837;47.630;18.822;2022-12-07T00:44:57;8.40;;;7.30;;
53927;SDS011;39837;47.630;18.822;2022-12-07T00:47:41;17.95;;;8.82;;
53927;SDS011;39837;47.630;18.822;2022-12-07T00:50:25;11.13;;;7.43;;
53927;SDS011;39837;47.630;18.822;2022-12-07T00:53:09;14.18;;;7.32;;
53927;SDS011;39837;47.630;18.822;2022-12-07T00:55:53;12.15;;;7.22;;
53927;SDS011;39837;47.630;18.822;2022-12-07T00:58:38;7.53;;;5.68;;
53927;SDS011;39837;47.630;18.822;2022-12-07T01:01:23;8.90;;;6.57;;
53927;SDS011;39837;47.630;18.822;2022-12-07T01:04:08;12.32;;;7.45;;
53927;SDS011;39837;47.630;18.822;2022-12-07T01:06:51;9.65;;;6.50;;
53927;SDS011;39837;47.630;18.822;2022-12-07T01:09:35;6.65;;;4.78;;
53927;SDS011;39837;47.630;18.822;2022-12-07T01:12:19;7.97;;;5.55;;
53927;SDS011;39837;47.630;18.822;2022-12-07T01:15:04;6.88;;;5.82;;
53927;SDS011;39837;47.630;18.822;2022-12-07T01:17:49;8.30;;;6.53;;
53927;SDS011;39837;47.630;18.822;2022-12-07T01:20:33;9.93;;;5.95;;
53927;SDS011;39837;47.630;18.822;2022-12-07T01:23:17;9.15;;;6.00;;
53927;SDS011;39837;47.630;18.822;2022-12-07T01:26:06;6.07;;;5.50;;
53927;SDS011;39837;47.630;18.822;2022-12-07T01:28:51;6.93;;;4.90;;
53927;SDS011;39837;47.630;18.822;2022-12-07T01:31:38;7.55;;;6.63;;
53927;SDS011;39837;47.630;18.822;2022-12-07T01:34:22;7.15;;;5.30;;
53927;SDS011;39837;47.630;18.822;2022-12-07T01:37:06;5.47;;;4.70;;
53927;SDS011;39837;47.630;18.822;2022-12-07T01:39:51;9.82;;;5.57;;
53927;SDS011;39837;47.630;18.822;2022-12-07T01:42:35;11.05;;;6.05;;
53927;SDS011;39837;47.630;18.822;2022-12-07T01:48:30;7.57;;;5.43;;
53927;SDS011;39837;47.630;18.822;2022-12-07T01:51:18;8.52;;;5.20;;
53927;SDS011;39837;47.630;18.822;2022-12-07T01:54:02;7.13;;;4.82;;
53927;SDS011;39837;47.630;18.822;2022-12-07T01:56:51;9.05;;;6.13;;
53927;SDS011;39837;47.630;18.822;2022-12-07T01:59:36;9.38;;;6.22;;
53927;SDS011;39837;47.630;18.822;2022-12-07T02:02:28;8.13;;;6.07;;
53927;SDS011;39837;47.630;18.822;2022-12-07T02:05:15;6.45;;;4.85;;
53927;SDS011;39837;47.630;18.822;2022-12-07T02:08:00;6.68;;;5.95;;
53927;SDS011;39837;47.630;18.822;2022-12-07T02:10:44;7.55;;;5.53;;
53927;SDS011;39837;47.630;18.822;2022-12-07T02:13:30;12.90;;;6.82;;
53927;SDS011;39837;47.630;18.822;2022-12-07T02:30:57;8.43;;;5.25;;
53927;SDS011;39837;47.630;18.822;2022-12-07T02:33:57;11.45;;;5.20;;
53927;SDS011;39837;47.630;18.822;2022-12-07T02:36:51;6.88;;;6.00;;
53927;SDS011;39837;47.630;18.822;2022-12-07T02:40:22;9.13;;;6.72;;
53927;SDS011;39837;47.630;18.822;2022-12-07T02:43:14;8.75;;;6.30;;
53927;SDS011;39837;47.630;18.822;2022-12-07T02:45:59;8.05;;;6.82;;
53927;SDS011;39837;47.630;18.822;2022-12-07T02:48:47;13.23;;;7.13;;
53927;SDS011;39837;47.630;18.822;2022-12-07T02:51:31;9.45;;;5.82;;
53927;SDS011;39837;47.630;18.822;2022-12-07T02:54:17;6.13;;;5.28;;
53927;SDS011;39837;47.630;18.822;2022-12-07T03:00:25;9.50;;;7.03;;
53927;SDS011;39837;47.630;18.822;2022-12-07T03:03:10;7.22;;;5.53;;
53927;SDS011;39837;47.630;18.822;2022-12-07T03:06:13;5.72;;;5.20;;
53927;SDS011;39837;47.630;18.822;2022-12-07T03:09:23;6.45;;;5.18;;
53927;SDS011;39837;47.630;18.822;2022-12-07T03:12:08;5.10;;;4.63;;
53927;SDS011;39837;47.630;18.822;2022-12-07T03:15:00;12.95;;;6.25;;
53927;SDS011;39837;47.630;18.822;2022-12-07T03:18:12;8.70;;;5.93;;
53927;SDS011;39837;47.630;18.822;2022-12-07T03:20:58;9.73;;;5.60;;
53927;SDS011;39837;47.630;18.822;2022-12-07T03:23:47;5.95;;;5.45;;
53927;SDS011;39837;47.630;18.822;2022-12-07T03:26:41;6.97;;;5.97;;
53927;SDS011;39837;47.630;18.822;2022-12-07T03:29:28;5.97;;;5.38;;
53927;SDS011;39837;47.630;18.822;2022-12-07T03:32:16;7.63;;;5.25;;
53927;SDS011;39837;47.630;18.822;2022-12-07T03:35:07;7.68;;;5.25;;
53927;SDS011;39837;47.630;18.822;2022-12-07T03:38:11;5.75;;;5.15;;
53927;SDS011;39837;47.630;18.822;2022-12-07T03:41:06;7.78;;;6.20;;
53927;SDS011;39837;47.630;18.822;2022-12-07T03:44:00;9.02;;;6.18;;
53927;SDS011;39837;47.630;18.822;2022-12-07T03:49:54;7.35;;;5.63;;
53927;SDS011;39837;47.630;18.822;2022-12-07T03:52:42;7.32;;;6.10;;
53927;SDS011;39837;47.630;18.822;2022-12-07T03:55:32;8.05;;;5.68;;
53927;SDS011;39837;47.630;18.822;2022-12-07T03:58:20;5.85;;;4.68;;
53927;SDS011;39837;47.630;18.822;2022-12-07T04:01:05;9.32;;;6.15;;
53927;SDS011;39837;47.630;18.822;2022-12-07T04:03:49;8.30;;;6.00;;
53927;SDS011;39837;47.630;18.822;2022-12-07T04:06:32;6.13;;;5.45;;
53927;SDS011;39837;47.630;18.822;2022-12-07T04:09:17;7.93;;;6.03;;
53927;SDS011;39837;47.630;18.822;2022-12-07T04:12:01;12.20;;;6.38;;
53927;SDS011;39837;47.630;18.822;2022-12-07T04:14:45;5.05;;;4.30;;
53927;SDS011;39837;47.630;18.822;2022-12-07T04:17:29;10.57;;;4.55;;
53927;SDS011;39837;47.630;18.822;2022-12-07T04:20:13;3.72;;;3.13;;
53927;SDS011;39837;47.630;18.822;2022-12-07T04:22:57;2.78;;;2.58;;
53927;SDS011;39837;47.630;18.822;2022-12-07T04:25:43;2.85;;;2.65;;
53927;SDS011;39837;47.630;18.822;2022-12-07T04:28:27;2.58;;;2.10;;
53927;SDS011;39837;47.630;18.822;2022-12-07T04:31:11;3.08;;;2.88;;
53927;SDS011;39837;47.630;18.822;2022-12-07T04:33:55;3.17;;;2.97;;
53927;SDS011;39837;47.630;18.822;2022-12-07T04:36:39;3.72;;;3.40;;
53927;SDS011;39837;47.630;18.822;2022-12-07T04:39:25;3.70;;;3.05;;
53927;SDS011;39837;47.630;18.822;2022-12-07T04:42:11;4.05;;;3.75;;
53927;SDS011;39837;47.630;18.822;2022-12-07T04:44:56;4.65;;;4.32;;
53927;SDS011;39837;47.630;18.822;2022-12-07T04:47:40;3.08;;;2.90;;
53927;SDS011;39837;47.630;18.822;2022-12-07T04:50:24;5.05;;;4.15;;
53927;SDS011;39837;47.630;18.822;2022-12-07T04:53:08;3.50;;;3.30;;
53927;SDS011;39837;47.630;18.822;2022-12-07T04:55:51;4.63;;;4.25;;
53927;SDS011;39837;47.630;18.822;2022-12-07T04:58:35;4.20;;;3.80;;
53927;SDS011;39837;47.630;18.822;2022-12-07T05:01:20;3.95;;;3.65;;
53927;SDS011;39837;47.630;18.822;2022-12-07T05:04:04;4.18;;;3.78;;
53927;SDS011;39837;47.630;18.822;2022-12-07T05:06:49;5.53;;;4.97;;
53927;SDS011;39837;47.630;18.822;2022-12-07T05:09:32;4.15;;;3.83;;
53927;SDS011;39837;47.630;18.822;2022-12-07T05:12:16;4.30;;;3.85;;
53927;SDS011;39837;47.630;18.822;2022-12-07T05:15:00;4.68;;;4.32;;
53927;SDS011;39837;47.630;18.822;2022-12-07T05:17:45;4.50;;;4.20;;
53927;SDS011;39837;47.630;18.822;2022-12-07T05:20:29;4.10;;;3.85;;
53927;SDS011;39837;47.630;18.822;2022-12-07T05:23:13;4.85;;;4.45;;
53927;SDS011;39837;47.630;18.822;2022-12-07T05:25:57;4.63;;;4.10;;
53927;SDS011;39837;47.630;18.822;2022-12-07T05:28:42;5.05;;;4.63;;
53927;SDS011;39837;47.630;18.822;2022-12-07T05:31:26;7.25;;;5.40;;
53927;SDS011;39837;47.630;18.822;2022-12-07T05:34:10;4.93;;;4.50;;
53927;SDS011;39837;47.630;18.822;2022-12-07T05:36:55;5.07;;;4.57;;
53927;SDS011;39837;47.630;18.822;2022-12-07T05:39:39;5.50;;;4.93;;
53927;SDS011;39837;47.630;18.822;2022-12-07T05:42:26;6.63;;;5.38;;
53927;SDS011;39837;47.630;18.822;2022-12-07T05:45:10;6.20;;;4.57;;
53927;SDS011;39837;47.630;18.822;2022-12-07T05:47:54;7.65;;;6.07;;
53927;SDS011;39837;47.630;18.822;2022-12-07T05:50:38;5.10;;;3.92;;
53927;SDS011;39837;47.630;18.822;2022-12-07T05:53:22;5.57;;;5.00;;
53927;SDS011;39837;47.630;18.822;2022-12-07T05:56:07;4.13;;;3.85;;
53927;SDS011;39837;47.630;18.822;2022-12-07T05:58:51;4.97;;;3.97;;
53927;SDS011;39837;47.630;18.822;2022-12-07T06:01:57;5.32;;;4.63;;
53927;SDS011;39837;47.630;18.822;2022-12-07T06:04:46;6.18;;;5.43;;
53927;SDS011;39837;47.630;18.822;2022-12-07T06:07:30;6.65;;;4.85;;
53927;SDS011;39837;47.630;18.822;2022-12-07T06:10:14;5.90;;;5.28;;
53927;SDS011;39837;47.630;18.822;2022-12-07T06:12:59;5.30;;;4.82;;
53927;SDS011;39837;47.630;18.822;2022-12-07T06:15:42;9.48;;;6.40;;
53927;SDS011;39837;47.630;18.822;2022-12-07T06:18:26;4.95;;;4.50;;
53927;SDS011;39837;47.630;18.822;2022-12-07T06:21:10;6.28;;;5.53;;
53927;SDS011;39837;47.630;18.822;2022-12-07T06:23:54;6.18;;;5.43;;
53927;SDS011;39837;47.630;18.822;2022-12-07T06:26:39;7.18;;;4.97;;
53927;SDS011;39837;47.630;18.822;2022-12-07T06:29:23;6.97;;;5.22;;
53927;SDS011;39837;47.630;18.822;2022-12-07T06:32:07;6.75;;;6.10;;
53927;SDS011;39837;47.630;18.822;2022-12-07T06:34:52;7.43;;;5.88;;
53927;SDS011;39837;47.630;18.822;2022-12-07T06:37:35;9.25;;;6.90;;
53927;SDS011;39837;47.630;18.822;2022-12-07T06:40:19;9.05;;;6.75;;
53927;SDS011;39837;47.630;18.822;2022-12-07T06:43:03;9.77;;;7.78;;
53927;SDS011;39837;47.630;18.822;2022-12-07T06:45:47;11.60;;;8.40;;
53927;SDS011;39837;47.630;18.822;2022-12-07T06:48:31;12.68;;;7.57;;
53927;SDS011;39837;47.630;18.822;2022-12-07T06:51:15;6.43;;;5.78;;
53927;SDS011;39837;47.630;18.822;2022-12-07T06:53:59;8.35;;;5.53;;
53927;SDS011;39837;47.630;18.822;2022-12-07T06:56:43;10.48;;;6.10;;
53927;SDS011;39837;47.630;18.822;2022-12-07T06:59:27;9.32;;;6.32;;
53927;SDS011;39837;47.630;18.822;2022-12-07T07:02:11;10.60;;;5.95;;
53927;SDS011;39837;47.630;18.822;2022-12-07T07:04:56;6.97;;;4.65;;
53927;SDS011;39837;47.630;18.822;2022-12-07T07:07:39;9.77;;;5.60;;
53927;SDS011;39837;47.630;18.822;2022-12-07T07:10:23;8.90;;;6.78;;
53927;SDS011;39837;47.630;18.822;2022-12-07T07:13:08;7.30;;;5.32;;
53927;SDS011;39837;47.630;18.822;2022-12-07T07:15:52;5.43;;;4.72;;
53927;SDS011;39837;47.630;18.822;2022-12-07T07:18:36;8.07;;;6.15;;
53927;SDS011;39837;47.630;18.822;2022-12-07T07:21:20;9.15;;;7.28;;
53927;SDS011;39837;47.630;18.822;2022-12-07T07:24:04;8.05;;;6.75;;
53927;SDS011;39837;47.630;18.822;2022-12-07T07:26:49;7.80;;;6.20;;
53927;SDS011;39837;47.630;18.822;2022-12-07T07:29:33;8.63;;;7.32;;
53927;SDS011;39837;47.630;18.822;2022-12-07T07:32:17;7.68;;;6.60;;
53927;SDS011;39837;47.630;18.822;2022-12-07T07:35:01;6.25;;;5.60;;
53927;SDS011;39837;47.630;18.822;2022-12-07T07:37:44;7.88;;;6.30;;
53927;SDS011;39837;47.630;18.822;2022-12-07T07:40:28;7.18;;;6.00;;
53927;SDS011;39837;47.630;18.822;2022-12-07T07:43:13;7.68;;;5.53;;
53927;SDS011;39837;47.630;18.822;2022-12-07T07:45:56;7.03;;;5.90;;
53927;SDS011;39837;47.630;18.822;2022-12-07T07:48:40;12.65;;;8.88;;
53927;SDS011;39837;47.630;18.822;2022-12-07T07:51:24;8.23;;;6.53;;
53927;SDS011;39837;47.630;18.822;2022-12-07T07:54:09;15.15;;;7.50;;
53927;SDS011;39837;47.630;18.822;2022-12-07T07:56:53;8.45;;;7.55;;
53927;SDS011;39837;47.630;18.822;2022-12-07T07:59:37;17.02;;;9.88;;
53927;SDS011;39837;47.630;18.822;2022-12-07T08:02:21;16.70;;;10.15;;
53927;SDS011;39837;47.630;18.822;2022-12-07T08:05:05;23.50;;;14.68;;
53927;SDS011;39837;47.630;18.822;2022-12-07T08:07:50;17.17;;;11.50;;
53927;SDS011;39837;47.630;18.822;2022-12-07T08:10:34;8.18;;;6.53;;
53927;SDS011;39837;47.630;18.822;2022-12-07T08:13:18;7.18;;;6.32;;
53927;SDS011;39837;47.630;18.822;2022-12-07T08:16:06;7.57;;;6.88;;
53927;SDS011;39837;47.630;18.822;2022-12-07T08:18:55;7.32;;;6.45;;
53927;SDS011;39837;47.630;18.822;2022-12-07T08:21:39;8.43;;;6.57;;
53927;SDS011;39837;47.630;18.822;2022-12-07T08:24:23;7.25;;;5.22;;
53927;SDS011;39837;47.630;18.822;2022-12-07T08:27:08;6.15;;;5.28;;
53927;SDS011;39837;47.630;18.822;2022-12-07T08:29:52;7.70;;;6.97;;
53927;SDS011;39837;47.630;18.822;2022-12-07T08:32:36;7.63;;;6.20;;
53927;SDS011;39837;47.630;18.822;2022-12-07T08:35:20;6.88;;;6.18;;
53927;SDS011;39837;47.630;18.822;2022-12-07T08:38:04;6.15;;;5.07;;
53927;SDS011;39837;47.630;18.822;2022-12-07T08:40:58;7.07;;;6.38;;
53927;SDS011;39837;47.630;18.822;2022-12-07T08:43:42;7.82;;;6.55;;
53927;SDS011;39837;47.630;18.822;2022-12-07T08:46:28;8.05;;;7.25;;
53927;SDS011;39837;47.630;18.822;2022-12-07T08:49:16;7.45;;;6.03;;
53927;SDS011;39837;47.630;18.822;2022-12-07T08:52:03;5.05;;;4.55;;
53927;SDS011;39837;47.630;18.822;2022-12-07T08:54:48;6.00;;;5.50;;
53927;SDS011;39837;47.630;18.822;2022-12-07T08:57:32;10.82;;;7.63;;
53927;SDS011;39837;47.630;18.822;2022-12-07T09:00:17;10.93;;;9.57;;
53927;SDS011;39837;47.630;18.822;2022-12-07T09:03:01;11.75;;;8.52;;
53927;SDS011;39837;47.630;18.822;2022-12-07T09:05:46;13.68;;;8.85;;
53927;SDS011;39837;47.630;18.822;2022-12-07T09:08:33;7.68;;;6.70;;
53927;SDS011;39837;47.630;18.822;2022-12-07T09:11:19;9.90;;;7.82;;
53927;SDS011;39837;47.630;18.822;2022-12-07T09:14:03;6.93;;;6.25;;
53927;SDS011;39837;47.630;18.822;2022-12-07T09:16:47;8.00;;;5.90;;
53927;SDS011;39837;47.630;18.822;2022-12-07T09:19:31;5.85;;;5.30;;
53927;SDS011;39837;47.630;18.822;2022-12-07T09:22:15;6.75;;;5.07;;
53927;SDS011;39837;47.630;18.822;2022-12-07T09:24:58;7.53;;;5.90;;
53927;SDS011;39837;47.630;18.822;2022-12-07T09:27:43;6.70;;;5.57;;
53927;SDS011;39837;47.630;18.822;2022-12-07T09:30:27;5.82;;;5.28;;
53927;SDS011;39837;47.630;18.822;2022-12-07T09:33:11;7.18;;;6.45;;
53927;SDS011;39837;47.630;18.822;2022-12-07T09:35:55;6.10;;;5.43;;
53927;SDS011;39837;47.630;18.822;2022-12-07T09:38:39;4.45;;;4.10;;
53927;SDS011;39837;47.630;18.822;2022-12-07T09:41:24;6.60;;;6.03;;
53927;SDS011;39837;47.630;18.822;2022-12-07T09:44:11;6.90;;;6.30;;
53927;SDS011;39837;47.630;18.822;2022-12-07T09:46:58;5.03;;;4.63;;
53927;SDS011;39837;47.630;18.822;2022-12-07T09:49:43;5.03;;;4.63;;
53927;SDS011;39837;47.630;18.822;2022-12-07T09:52:27;4.70;;;4.30;;
53927;SDS011;39837;47.630;18.822;2022-12-07T09:55:13;5.50;;;5.05;;
53927;SDS011;39837;47.630;18.822;2022-12-07T09:58:04;5.60;;;5.05;;
53927;SDS011;39837;47.630;18.822;2022-12-07T10:00:50;6.55;;;5.78;;
53927;SDS011;39837;47.630;18.822;2022-12-07T10:03:37;6.40;;;5.15;;
53927;SDS011;39837;47.630;18.822;2022-12-07T10:06:23;7.20;;;5.80;;
53927;SDS011;39837;47.630;18.822;2022-12-07T10:09:08;7.10;;;5.32;;
53927;SDS011;39837;47.630;18.822;2022-12-07T10:12:00;5.90;;;5.13;;
53927;SDS011;39837;47.630;18.822;2022-12-07T10:17:49;5.07;;;4.68;;
53927;SDS011;39837;47.630;18.822;2022-12-07T10:20:34;5.03;;;4.63;;
53927;SDS011;39837;47.630;18.822;2022-12-07T10:23:19;4.50;;;4.18;;
53927;SDS011;39837;47.630;18.822;2022-12-07T10:32:03;5.18;;;4.78;;
53927;SDS011;39837;47.630;18.822;2022-12-07T10:35:19;7.50;;;4.35;;
53927;SDS011;39837;47.630;18.822;2022-12-07T10:38:15;4.32;;;3.97;;
53927;SDS011;39837;47.630;18.822;2022-12-07T10:41:06;5.13;;;4.63;;
53927;SDS011;39837;47.630;18.822;2022-12-07T10:43:54;4.93;;;4.57;;
53927;SDS011;39837;47.630;18.822;2022-12-07T10:56:22;6.35;;;5.75;;
53927;SDS011;39837;47.630;18.822;2022-12-07T11:05:05;7.20;;;6.35;;
53927;SDS011;39837;47.630;18.822;2022-12-07T11:16:57;6.25;;;5.68;;
53927;SDS011;39837;47.630;18.822;2022-12-07T11:37:47;3.03;;;2.85;;
53927;SDS011;39837;47.630;18.822;2022-12-07T11:40:34;3.90;;;3.60;;
53927;SDS011;39837;47.630;18.822;2022-12-07T11:43:27;2.95;;;2.78;;
53927;SDS011;39837;47.630;18.822;2022-12-07T11:46:14;3.33;;;3.13;;
53927;SDS011;39837;47.630;18.822;2022-12-07T11:49:02;3.93;;;3.63;;
53927;SDS011;39837;47.630;18.822;2022-12-07T11:51:52;3.30;;;3.10;;
53927;SDS011;39837;47.630;18.822;2022-12-07T11:54:40;4.30;;;3.95;;
53927;SDS011;39837;47.630;18.822;2022-12-07T11:57:38;4.95;;;3.80;;
53927;SDS011;39837;47.630;18.822;2022-12-07T12:00:25;5.95;;;4.55;;
53927;SDS011;39837;47.630;18.822;2022-12-07T12:03:15;4.35;;;4.00;;
53927;SDS011;39837;47.630;18.822;2022-12-07T12:06:05;3.95;;;3.55;;
53927;SDS011;39837;47.630;18.822;2022-12-07T12:09:23;4.15;;;3.80;;
53927;SDS011;39837;47.630;18.822;2022-12-07T12:18:25;4.00;;;3.70;;
53927;SDS011;39837;47.630;18.822;2022-12-07T12:21:15;5.15;;;4.22;;
53927;SDS011;39837;47.630;18.822;2022-12-07T12:24:05;4.93;;;4.53;;
53927;SDS011;39837;47.630;18.822;2022-12-07T12:26:58;4.75;;;3.88;;
53927;SDS011;39837;47.630;18.822;2022-12-07T12:29:50;5.28;;;4.53;;
53927;SDS011;39837;47.630;18.822;2022-12-07T12:32:40;7.28;;;4.28;;
53927;SDS011;39837;47.630;18.822;2022-12-07T12:41:10;5.18;;;4.78;;
53927;SDS011;39837;47.630;18.822;2022-12-07T12:45:02;4.78;;;4.35;;
53927;SDS011;39837;47.630;18.822;2022-12-07T12:48:01;3.72;;;3.40;;
53927;SDS011;39837;47.630;18.822;2022-12-07T12:50:46;3.97;;;3.55;;
53927;SDS011;39837;47.630;18.822;2022-12-07T12:53:30;4.65;;;4.22;;
53927;SDS011;39837;47.630;18.822;2022-12-07T13:02:15;4.07;;;3.67;;
53927;SDS011;39837;47.630;18.822;2022-12-07T13:05:00;4.45;;;3.38;;
53927;SDS011;39837;47.630;18.822;2022-12-07T13:10:35;4.07;;;3.70;;
53927;SDS011;39837;47.630;18.822;2022-12-07T13:18:56;5.22;;;4.82;;
53927;SDS011;39837;47.630;18.822;2022-12-07T13:21:41;3.55;;;3.35;;
53927;SDS011;39837;47.630;18.822;2022-12-07T13:24:25;9.90;;;3.97;;
53927;SDS011;39837;47.630;18.822;2022-12-07T13:27:09;4.38;;;3.88;;
53927;SDS011;39837;47.630;18.822;2022-12-07T13:29:55;3.75;;;3.47;;
53927;SDS011;39837;47.630;18.822;2022-12-07T13:32:40;4.67;;;3.10;;
53927;SDS011;39837;47.630;18.822;2022-12-07T13:35:57;5.85;;;4.95;;
53927;SDS011;39837;47.630;18.822;2022-12-07T13:38:37;5.22;;;4.22;;
53927;SDS011;39837;47.630;18.822;2022-12-07T13:41:26;3.92;;;3.70;;
53927;SDS011;39837;47.630;18.822;2022-12-07T13:44:13;7.82;;;4.72;;
53927;SDS011;39837;47.630;18.822;2022-12-07T13:52:34;4.45;;;4.03;;
53927;SDS011;39837;47.630;18.822;2022-12-07T13:55:30;40.65;;;14.68;;
53927;SDS011;39837;47.630;18.822;2022-12-07T13:58:14;7.28;;;6.45;;
53927;SDS011;39837;47.630;18.822;2022-12-07T14:00:58;9.68;;;6.60;;
53927;SDS011;39837;47.630;18.822;2022-12-07T14:03:42;11.80;;;6.80;;
53927;SDS011;39837;47.630;18.822;2022-12-07T14:06:26;4.97;;;4.47;;
53927;SDS011;39837;47.630;18.822;2022-12-07T14:09:19;6.43;;;5.03;;
53927;SDS011;39837;47.630;18.822;2022-12-07T14:12:07;7.80;;;4.73;;
53927;SDS011;39837;47.630;18.822;2022-12-07T14:14:51;12.57;;;5.22;;
53927;SDS011;39837;47.630;18.822;2022-12-07T14:17:36;5.35;;;4.88;;
53927;SDS011;39837;47.630;18.822;2022-12-07T14:23:25;9.00;;;5.10;;
53927;SDS011;39837;47.630;18.822;2022-12-07T14:26:19;3.90;;;3.53;;
53927;SDS011;39837;47.630;18.822;2022-12-07T14:29:20;4.00;;;3.72;;
53927;SDS011;39837;47.630;18.822;2022-12-07T14:32:18;3.80;;;3.50;;
53927;SDS011;39837;47.630;18.822;2022-12-07T14:35:13;4.63;;;4.22;;
53927;SDS011;39837;47.630;18.822;2022-12-07T14:37:57;4.55;;;4.07;;
53927;SDS011;39837;47.630;18.822;2022-12-07T14:40:42;4.45;;;3.75;;
53927;SDS011;39837;47.630;18.822;2022-12-07T14:43:26;4.30;;;3.97;;
53927;SDS011;39837;47.630;18.822;2022-12-07T14:46:10;7.05;;;4.22;;
53927;SDS011;39837;47.630;18.822;2022-12-07T14:48:54;4.45;;;3.80;;
53927;SDS011;39837;47.630;18.822;2022-12-07T14:51:38;4.82;;;4.45;;
53927;SDS011;39837;47.630;18.822;2022-12-07T14:54:23;3.75;;;3.45;;
53927;SDS011;39837;47.630;18.822;2022-12-07T14:57:10;3.22;;;3.03;;
53927;SDS011;39837;47.630;18.822;2022-12-07T14:59:54;4.35;;;3.42;;
53927;SDS011;39837;47.630;18.822;2022-12-07T15:02:38;4.18;;;3.78;;
53927;SDS011;39837;47.630;18.822;2022-12-07T15:05:22;3.67;;;3.40;;
53927;SDS011;39837;47.630;18.822;2022-12-07T15:08:06;7.25;;;4.57;;
53927;SDS011;39837;47.630;18.822;2022-12-07T15:10:52;5.60;;;4.72;;
53927;SDS011;39837;47.630;18.822;2022-12-07T15:13:37;9.20;;;4.68;;
53927;SDS011;39837;47.630;18.822;2022-12-07T15:16:40;5.13;;;4.40;;
53927;SDS011;39837;47.630;18.822;2022-12-07T15:19:25;6.77;;;4.53;;
53927;SDS011;39837;47.630;18.822;2022-12-07T15:22:11;7.53;;;5.45;;
53927;SDS011;39837;47.630;18.822;2022-12-07T15:24:54;10.02;;;5.78;;
53927;SDS011;39837;47.630;18.822;2022-12-07T15:27:38;5.80;;;4.70;;
53927;SDS011;39837;47.630;18.822;2022-12-07T15:30:22;10.45;;;5.03;;
53927;SDS011;39837;47.630;18.822;2022-12-07T15:33:06;5.00;;;4.35;;
53927;SDS011;39837;47.630;18.822;2022-12-07T15:35:51;6.45;;;5.35;;
53927;SDS011;39837;47.630;18.822;2022-12-07T15:38:35;6.82;;;5.68;;
53927;SDS011;39837;47.630;18.822;2022-12-07T15:41:19;13.65;;;7.32;;
53927;SDS011;39837;47.630;18.822;2022-12-07T15:44:03;10.75;;;6.05;;
53927;SDS011;39837;47.630;18.822;2022-12-07T15:47:06;12.05;;;6.55;;
53927;SDS011;39837;47.630;18.822;2022-12-07T15:49:50;7.78;;;5.40;;
53927;SDS011;39837;47.630;18.822;2022-12-07T15:52:35;5.93;;;4.65;;
53927;SDS011;39837;47.630;18.822;2022-12-07T15:55:19;8.32;;;7.03;;
53927;SDS011;39837;47.630;18.822;2022-12-07T15:58:03;8.65;;;6.38;;
53927;SDS011;39837;47.630;18.822;2022-12-07T16:00:47;9.73;;;6.20;;
53927;SDS011;39837;47.630;18.822;2022-12-07T16:03:32;11.32;;;7.68;;
53927;SDS011;39837;47.630;18.822;2022-12-07T16:06:16;9.57;;;6.63;;
53927;SDS011;39837;47.630;18.822;2022-12-07T16:09:00;12.60;;;7.15;;
53927;SDS011;39837;47.630;18.822;2022-12-07T16:11:45;7.18;;;5.15;;
53927;SDS011;39837;47.630;18.822;2022-12-07T16:14:29;6.43;;;5.25;;
53927;SDS011;39837;47.630;18.822;2022-12-07T16:17:15;8.77;;;5.55;;
53927;SDS011;39837;47.630;18.822;2022-12-07T16:19:59;5.32;;;4.53;;
53927;SDS011;39837;47.630;18.822;2022-12-07T16:22:43;6.13;;;5.25;;
53927;SDS011;39837;47.630;18.822;2022-12-07T16:25:27;5.65;;;5.07;;
53927;SDS011;39837;47.630;18.822;2022-12-07T16:28:12;7.95;;;5.63;;
53927;SDS011;39837;47.630;18.822;2022-12-07T16:31:00;9.45;;;5.97;;
53927;SDS011;39837;47.630;18.822;2022-12-07T16:33:46;11.57;;;6.45;;
53927;SDS011;39837;47.630;18.822;2022-12-07T16:36:30;7.80;;;5.20;;
53927;SDS011;39837;47.630;18.822;2022-12-07T16:39:15;10.63;;;4.80;;
53927;SDS011;39837;47.630;18.822;2022-12-07T16:41:59;4.45;;;4.03;;
53927;SDS011;39837;47.630;18.822;2022-12-07T16:44:43;7.07;;;5.20;;
53927;SDS011;39837;47.630;18.822;2022-12-07T16:47:27;6.20;;;4.75;;
53927;SDS011;39837;47.630;18.822;2022-12-07T16:50:12;5.97;;;5.10;;
53927;SDS011;39837;47.630;18.822;2022-12-07T16:52:56;12.38;;;7.35;;
53927;SDS011;39837;47.630;18.822;2022-12-07T16:55:44;7.55;;;6.80;;
53927;SDS011;39837;47.630;18.822;2022-12-07T16:58:28;14.43;;;6.85;;
53927;SDS011;39837;47.630;18.822;2022-12-07T17:01:15;6.70;;;5.78;;
53927;SDS011;39837;47.630;18.822;2022-12-07T17:04:01;12.45;;;7.40;;
53927;SDS011;39837;47.630;18.822;2022-12-07T17:06:45;8.68;;;7.75;;
53927;SDS011;39837;47.630;18.822;2022-12-07T17:09:29;7.97;;;5.75;;
53927;SDS011;39837;47.630;18.822;2022-12-07T17:12:14;8.13;;;5.25;;
53927;SDS011;39837;47.630;18.822;2022-12-07T17:14:58;9.57;;;7.68;;
53927;SDS011;39837;47.630;18.822;2022-12-07T17:18:00;6.72;;;4.95;;
53927;SDS011;39837;47.630;18.822;2022-12-07T17:20:44;8.15;;;6.57;;
53927;SDS011;39837;47.630;18.822;2022-12-07T17:23:28;14.18;;;8.73;;
53927;SDS011;39837;47.630;18.822;2022-12-07T17:26:15;6.03;;;5.47;;
53927;SDS011;39837;47.630;18.822;2022-12-07T17:29:01;9.93;;;7.63;;
53927;SDS011;39837;47.630;18.822;2022-12-07T17:31:47;8.65;;;7.22;;
53927;SDS011;39837;47.630;18.822;2022-12-07T17:34:31;11.13;;;4.55;;
53927;SDS011;39837;47.630;18.822;2022-12-07T17:37:16;8.82;;;5.78;;
53927;SDS011;39837;47.630;18.822;2022-12-07T17:40:00;8.75;;;7.00;;
53927;SDS011;39837;47.630;18.822;2022-12-07T17:42:44;14.13;;;8.10;;
53927;SDS011;39837;47.630;18.822;2022-12-07T17:45:32;10.95;;;6.07;;
53927;SDS011;39837;47.630;18.822;2022-12-07T17:48:16;11.75;;;7.32;;
53927;SDS011;39837;47.630;18.822;2022-12-07T17:51:02;5.20;;;4.57;;
53927;SDS011;39837;47.630;18.822;2022-12-07T17:54:05;7.35;;;6.07;;
53927;SDS011;39837;47.630;18.822;2022-12-07T17:56:49;11.70;;;7.72;;
53927;SDS011;39837;47.630;18.822;2022-12-07T17:59:34;6.90;;;6.20;;
53927;SDS011;39837;47.630;18.822;2022-12-07T18:02:18;12.25;;;7.03;;
53927;SDS011;39837;47.630;18.822;2022-12-07T18:05:02;5.45;;;4.60;;
53927;SDS011;39837;47.630;18.822;2022-12-07T18:07:47;7.18;;;4.72;;
53927;SDS011;39837;47.630;18.822;2022-12-07T18:10:31;4.40;;;4.03;;
53927;SDS011;39837;47.630;18.822;2022-12-07T18:13:15;5.00;;;4.45;;
53927;SDS011;39837;47.630;18.822;2022-12-07T18:16:19;4.43;;;3.88;;